sensor_id;sensor_type;location;lat;lon;timestamp;pressure;altitude;pressure_sealevel;temperature;humidity
12781;BME280;6454;43.304;24.344;2023-11-21T00:00:26;100102.09;;;4.55;86.21
12781;BME280;6454;43.304;24.344;2023-11-21T00:02:54;100134.69;;;4.80;86.34
12781;BME280;6454;43.304;24.344;2023-11-21T00:05:23;100103.34;;;4.69;86.48
12781;BME280;6454;43.304;24.344;2023-11-21T00:07:51;100123.03;;;4.96;87.08
12781;BME280;6454;43.304;24.344;2023-11-21T00:10:18;100127.00;;;5.10;88.70
12781;BME280;6454;43.304;24.344;2023-11-21T00:12:45;100101.66;;;5.06;89.78
12781;BME280;6454;43.304;24.344;2023-11-21T00:15:15;100098.53;;;5.14;89.48
12781;BME280;6454;43.304;24.344;2023-11-21T00:17:42;100132.19;;;5.44;89.00
12781;BME280;6454;43.304;24.344;2023-11-21T00:20:09;100127.22;;;5.57;88.17
12781;BME280;6454;43.304;24.344;2023-11-21T00:22:40;100120.25;;;5.61;88.11
12781;BME280;6454;43.304;24.344;2023-11-21T00:25:08;100115.75;;;5.67;88.84
12781;BME280;6454;43.304;24.344;2023-11-21T00:27:37;100101.97;;;5.63;87.79
12781;BME280;6454;43.304;24.344;2023-11-21T00:30:05;100108.88;;;5.81;87.89
12781;BME280;6454;43.304;24.344;2023-11-21T00:32:32;100105.38;;;5.80;88.92
12781;BME280;6454;43.304;24.344;2023-11-21T00:34:59;100104.97;;;5.94;87.76
12781;BME280;6454;43.304;24.344;2023-11-21T00:37:27;100080.97;;;5.87;87.53
12781;BME280;6454;43.304;24.344;2023-11-21T00:39:55;100097.78;;;6.04;87.43
12781;BME280;6454;43.304;24.344;2023-11-21T00:42:22;100092.75;;;6.13;87.02
12781;BME280;6454;43.304;24.344;2023-11-21T00:44:50;100100.88;;;6.18;86.66
12781;BME280;6454;43.304;24.344;2023-11-21T00:47:17;100087.72;;;5.90;86.06
12781;BME280;6454;43.304;24.344;2023-11-21T00:49:44;100104.72;;;5.95;86.14
12781;BME280;6454;43.304;24.344;2023-11-21T00:52:11;100104.22;;;5.98;85.81
12781;BME280;6454;43.304;24.344;2023-11-21T00:54:38;100058.19;;;5.68;85.49
12781;BME280;6454;43.304;24.344;2023-11-21T00:57:07;100115.03;;;6.03;85.36
12781;BME280;6454;43.304;24.344;2023-11-21T00:59:34;100101.72;;;5.92;85.58
12781;BME280;6454;43.304;24.344;2023-11-21T01:02:01;100101.84;;;6.07;85.49
12781;BME280;6454;43.304;24.344;2023-11-21T01:04:30;100105.00;;;5.99;85.72
12781;BME280;6454;43.304;24.344;2023-11-21T01:06:58;100074.38;;;5.73;85.65
12781;BME280;6454;43.304;24.344;2023-11-21T01:09:25;100105.50;;;5.91;85.49
12781;BME280;6454;43.304;24.344;2023-11-21T01:11:53;100101.19;;;5.90;85.67
12781;BME280;6454;43.304;24.344;2023-11-21T01:14:22;100095.19;;;5.82;85.21
12781;BME280;6454;43.304;24.344;2023-11-21T01:16:52;100103.97;;;5.73;85.14
12781;BME280;6454;43.304;24.344;2023-11-21T01:19:20;100099.16;;;5.75;84.75
12781;BME280;6454;43.304;24.344;2023-11-21T01:21:47;100096.88;;;5.62;84.43
12781;BME280;6454;43.304;24.344;2023-11-21T01:24:14;100098.63;;;5.51;85.12
12781;BME280;6454;43.304;24.344;2023-11-21T01:26:41;100099.06;;;5.38;85.45
12781;BME280;6454;43.304;24.344;2023-11-21T01:29:08;100105.66;;;5.26;85.59
12781;BME280;6454;43.304;24.344;2023-11-21T01:31:37;100100.72;;;5.17;86.35
12781;BME280;6454;43.304;24.344;2023-11-21T01:34:05;100096.41;;;5.16;86.43
12781;BME280;6454;43.304;24.344;2023-11-21T01:36:32;100093.47;;;5.18;86.24
12781;BME280;6454;43.304;24.344;2023-11-21T01:39:00;99844.28;;;3.63;85.73
12781;BME280;6454;43.304;24.344;2023-11-21T01:41:27;100097.47;;;5.15;86.01
12781;BME280;6454;43.304;24.344;2023-11-21T01:43:54;100088.53;;;5.10;85.62
12781;BME280;6454;43.304;24.344;2023-11-21T01:46:22;100088.16;;;5.01;85.83
12781;BME280;6454;43.304;24.344;2023-11-21T01:48:52;100093.25;;;4.98;85.15
12781;BME280;6454;43.304;24.344;2023-11-21T01:51:21;100007.50;;;4.31;86.08
12781;BME280;6454;43.304;24.344;2023-11-21T01:53:48;100083.41;;;4.87;86.09
12781;BME280;6454;43.304;24.344;2023-11-21T01:56:15;100073.22;;;4.89;86.44
12781;BME280;6454;43.304;24.344;2023-11-21T01:58:42;100081.00;;;4.85;86.55
12781;BME280;6454;43.304;24.344;2023-11-21T02:01:12;100082.66;;;4.91;86.58
12781;BME280;6454;43.304;24.344;2023-11-21T02:03:39;100079.84;;;4.81;86.11
12781;BME280;6454;43.304;24.344;2023-11-21T02:06:08;100079.84;;;4.81;86.59
12781;BME280;6454;43.304;24.344;2023-11-21T02:08:36;100080.88;;;4.75;86.53
12781;BME280;6454;43.304;24.344;2023-11-21T02:11:05;100069.38;;;4.80;86.46
12781;BME280;6454;43.304;24.344;2023-11-21T02:13:35;100070.69;;;4.77;86.94
12781;BME280;6454;43.304;24.344;2023-11-21T02:16:02;100064.75;;;4.75;86.43
12781;BME280;6454;43.304;24.344;2023-11-21T02:18:31;100060.13;;;4.71;86.87
12781;BME280;6454;43.304;24.344;2023-11-21T02:20:58;100067.88;;;4.67;87.11
12781;BME280;6454;43.304;24.344;2023-11-21T02:23:30;100064.69;;;4.70;87.55
12781;BME280;6454;43.304;24.344;2023-11-21T02:25:57;100061.13;;;4.65;87.49
12781;BME280;6454;43.304;24.344;2023-11-21T02:28:27;100066.00;;;4.68;87.60
12781;BME280;6454;43.304;24.344;2023-11-21T02:30:54;100064.75;;;4.75;87.58
12781;BME280;6454;43.304;24.344;2023-11-21T02:33:23;100069.63;;;4.78;87.28
12781;BME280;6454;43.304;24.344;2023-11-21T02:35:51;100070.63;;;4.72;87.21
12781;BME280;6454;43.304;24.344;2023-11-21T02:38:21;100037.81;;;4.48;88.05
12781;BME280;6454;43.304;24.344;2023-11-21T02:40:49;100068.06;;;4.61;87.58
12781;BME280;6454;43.304;24.344;2023-11-21T02:43:16;100065.59;;;4.59;87.73
12781;BME280;6454;43.304;24.344;2023-11-21T02:45:44;100058.19;;;4.66;87.55
12781;BME280;6454;43.304;24.344;2023-11-21T02:48:11;100059.56;;;4.69;87.21
12781;BME280;6454;43.304;24.344;2023-11-21T02:50:38;100065.38;;;4.61;87.48
12781;BME280;6454;43.304;24.344;2023-11-21T02:53:06;100057.59;;;4.64;86.94
12781;BME280;6454;43.304;24.344;2023-11-21T02:55:33;99990.41;;;4.16;87.58
12781;BME280;6454;43.304;24.344;2023-11-21T02:58:03;100062.00;;;4.48;87.83
12781;BME280;6454;43.304;24.344;2023-11-21T03:00:31;100069.97;;;4.43;87.82
12781;BME280;6454;43.304;24.344;2023-11-21T03:02:58;100057.53;;;4.37;88.19
12781;BME280;6454;43.304;24.344;2023-11-21T03:05:26;100057.41;;;4.27;88.34
12781;BME280;6454;43.304;24.344;2023-11-21T03:07:56;100055.72;;;4.21;89.18
12781;BME280;6454;43.304;24.344;2023-11-21T03:10:23;100056.44;;;4.17;89.00
12781;BME280;6454;43.304;24.344;2023-11-21T03:12:51;100015.38;;;4.00;88.21
12781;BME280;6454;43.304;24.344;2023-11-21T03:15:20;100051.94;;;4.22;88.21
12781;BME280;6454;43.304;24.344;2023-11-21T03:17:48;100048.72;;;4.20;88.07
12781;BME280;6454;43.304;24.344;2023-11-21T03:20:15;100059.72;;;4.19;87.92
12781;BME280;6454;43.304;24.344;2023-11-21T03:22:43;100054.50;;;4.12;87.88
12781;BME280;6454;43.304;24.344;2023-11-21T03:25:10;100058.31;;;4.00;88.52
12781;BME280;6454;43.304;24.344;2023-11-21T03:27:37;100051.72;;;4.07;88.43
12781;BME280;6454;43.304;24.344;2023-11-21T03:30:07;100056.28;;;4.07;88.50
12781;BME280;6454;43.304;24.344;2023-11-21T03:32:36;100055.25;;;4.08;87.91
12781;BME280;6454;43.304;24.344;2023-11-21T03:35:04;100047.34;;;4.18;86.95
12781;BME280;6454;43.304;24.344;2023-11-21T03:37:31;100054.00;;;4.15;86.57
12781;BME280;6454;43.304;24.344;2023-11-21T03:39:58;100059.47;;;4.04;87.07
12781;BME280;6454;43.304;24.344;2023-11-21T03:42:27;100064.91;;;3.92;87.76
12781;BME280;6454;43.304;24.344;2023-11-21T03:44:54;100057.03;;;3.85;88.21
12781;BME280;6454;43.304;24.344;2023-11-21T03:47:22;100052.66;;;3.79;87.89
12781;BME280;6454;43.304;24.344;2023-11-21T03:49:51;100057.78;;;3.81;88.13
12781;BME280;6454;43.304;24.344;2023-11-21T03:52:18;100060.69;;;3.79;87.82
12781;BME280;6454;43.304;24.344;2023-11-21T03:54:45;100060.06;;;3.72;88.47
12781;BME280;6454;43.304;24.344;2023-11-21T03:57:13;100063.84;;;3.76;88.61
12781;BME280;6454;43.304;24.344;2023-11-21T03:59:41;100060.69;;;3.79;88.18
12781;BME280;6454;43.304;24.344;2023-11-21T04:02:08;100055.50;;;3.73;88.18
12781;BME280;6454;43.304;24.344;2023-11-21T04:04:36;99962.59;;;3.17;88.37
12781;BME280;6454;43.304;24.344;2023-11-21T04:07:05;100033.31;;;3.61;89.39
12781;BME280;6454;43.304;24.344;2023-11-21T04:09:32;100041.84;;;3.74;89.85
12781;BME280;6454;43.304;24.344;2023-11-21T04:12:02;100044.22;;;3.71;90.77
12781;BME280;6454;43.304;24.344;2023-11-21T04:14:29;100058.44;;;3.88;91.95
12781;BME280;6454;43.304;24.344;2023-11-21T04:16:56;100053.81;;;3.83;93.09
12781;BME280;6454;43.304;24.344;2023-11-21T04:19:23;99947.09;;;3.36;92.62
12781;BME280;6454;43.304;24.344;2023-11-21T04:21:51;100052.22;;;4.04;92.79
12781;BME280;6454;43.304;24.344;2023-11-21T04:24:20;100052.63;;;4.13;92.50
12781;BME280;6454;43.304;24.344;2023-11-21T04:26:47;100052.50;;;4.24;92.46
12781;BME280;6454;43.304;24.344;2023-11-21T04:29:14;100045.53;;;4.23;92.24
12781;BME280;6454;43.304;24.344;2023-11-21T04:31:42;100054.03;;;4.37;94.28
12781;BME280;6454;43.304;24.344;2023-11-21T04:34:09;100054.22;;;4.52;93.70
12781;BME280;6454;43.304;24.344;2023-11-21T04:36:36;100051.44;;;4.64;93.17
12781;BME280;6454;43.304;24.344;2023-11-21T04:39:03;99945.47;;;3.89;93.04
12781;BME280;6454;43.304;24.344;2023-11-21T04:41:33;100063.00;;;4.86;93.03
12781;BME280;6454;43.304;24.344;2023-11-21T04:44:02;100062.34;;;5.00;92.74
12781;BME280;6454;43.304;24.344;2023-11-21T04:46:30;100075.66;;;5.12;91.89
12781;BME280;6454;43.304;24.344;2023-11-21T04:48:57;100010.38;;;4.68;91.28
12781;BME280;6454;43.304;24.344;2023-11-21T04:51:24;100065.91;;;5.06;90.75
12781;BME280;6454;43.304;24.344;2023-11-21T04:53:51;100077.13;;;5.25;90.39
12781;BME280;6454;43.304;24.344;2023-11-21T04:56:18;100076.56;;;5.22;90.61
12781;BME280;6454;43.304;24.344;2023-11-21T04:58:49;100084.09;;;5.20;90.37
12781;BME280;6454;43.304;24.344;2023-11-21T05:01:16;100092.44;;;5.24;90.21
12781;BME280;6454;43.304;24.344;2023-11-21T05:03:47;100088.84;;;5.13;90.47
12781;BME280;6454;43.304;24.344;2023-11-21T05:06:15;100088.53;;;5.10;90.50
12781;BME280;6454;43.304;24.344;2023-11-21T05:08:42;100082.66;;;5.13;90.35
12781;BME280;6454;43.304;24.344;2023-11-21T05:11:09;100087.16;;;5.07;90.32
12781;BME280;6454;43.304;24.344;2023-11-21T05:13:37;100080.16;;;5.06;90.41
12781;BME280;6454;43.304;24.344;2023-11-21T05:16:06;100086.59;;;5.05;90.84
12781;BME280;6454;43.304;24.344;2023-11-21T05:18:34;100073.59;;;4.97;91.14
12781;BME280;6454;43.304;24.344;2023-11-21T05:21:01;100059.72;;;4.84;91.62
12781;BME280;6454;43.304;24.344;2023-11-21T05:23:28;99936.94;;;4.14;91.67
12781;BME280;6454;43.304;24.344;2023-11-21T05:25:57;100072.72;;;5.13;92.57
12781;BME280;6454;43.304;24.344;2023-11-21T05:28:24;100080.81;;;5.18;92.11
12781;BME280;6454;43.304;24.344;2023-11-21T05:30:52;100075.44;;;5.18;91.76
12781;BME280;6454;43.304;24.344;2023-11-21T05:33:21;100056.31;;;5.15;91.47
12781;BME280;6454;43.304;24.344;2023-11-21T05:35:49;100038.28;;;5.10;91.75
12781;BME280;6454;43.304;24.344;2023-11-21T05:38:16;100078.91;;;5.41;91.63
12781;BME280;6454;43.304;24.344;2023-11-21T05:40:48;100075.19;;;5.47;91.75
12781;BME280;6454;43.304;24.344;2023-11-21T05:43:15;100077.34;;;5.45;91.87
12781;BME280;6454;43.304;24.344;2023-11-21T05:45:43;100071.53;;;5.58;91.46
12781;BME280;6454;43.304;24.344;2023-11-21T05:48:10;100076.97;;;5.63;91.83
12781;BME280;6454;43.304;24.344;2023-11-21T05:50:39;100075.44;;;5.72;91.61
12781;BME280;6454;43.304;24.344;2023-11-21T05:53:06;100075.25;;;5.83;90.65
12781;BME280;6454;43.304;24.344;2023-11-21T05:55:36;100051.22;;;5.72;90.34
12781;BME280;6454;43.304;24.344;2023-11-21T05:58:04;100081.31;;;5.96;90.44
12781;BME280;6454;43.304;24.344;2023-11-21T06:00:33;100079.25;;;6.08;90.03
12781;BME280;6454;43.304;24.344;2023-11-21T06:03:00;100072.81;;;6.14;89.69
12781;BME280;6454;43.304;24.344;2023-11-21T06:05:28;100047.09;;;5.96;89.42
12781;BME280;6454;43.304;24.344;2023-11-21T06:07:59;100072.06;;;6.23;89.28
12781;BME280;6454;43.304;24.344;2023-11-21T06:10:27;100078.31;;;6.29;88.88
12781;BME280;6454;43.304;24.344;2023-11-21T06:12:55;100074.84;;;6.38;88.37
12781;BME280;6454;43.304;24.344;2023-11-21T06:15:23;100071.63;;;6.36;90.56
12781;BME280;6454;43.304;24.344;2023-11-21T06:17:51;100056.28;;;6.37;89.33
12781;BME280;6454;43.304;24.344;2023-11-21T06:20:20;100077.63;;;6.54;88.86
12781;BME280;6454;43.304;24.344;2023-11-21T06:22:49;100066.31;;;6.52;88.98
12781;BME280;6454;43.304;24.344;2023-11-21T06:25:18;100068.47;;;6.49;89.69
12781;BME280;6454;43.304;24.344;2023-11-21T06:27:46;99854.28;;;5.33;88.23
12781;BME280;6454;43.304;24.344;2023-11-21T06:30:14;100078.84;;;6.73;87.57
12781;BME280;6454;43.304;24.344;2023-11-21T06:32:43;100073.16;;;6.74;87.36
12781;BME280;6454;43.304;24.344;2023-11-21T06:35:12;100073.19;;;6.79;86.99
12781;BME280;6454;43.304;24.344;2023-11-21T06:37:40;99745.50;;;4.72;85.79
12781;BME280;6454;43.304;24.344;2023-11-21T06:40:13;100098.75;;;6.72;86.83
12781;BME280;6454;43.304;24.344;2023-11-21T06:42:43;100083.19;;;6.84;86.62
12781;BME280;6454;43.304;24.344;2023-11-21T06:45:13;100086.44;;;6.91;86.58
12781;BME280;6454;43.304;24.344;2023-11-21T06:47:41;100059.75;;;6.89;85.52
12781;BME280;6454;43.304;24.344;2023-11-21T06:50:08;100084.06;;;7.04;85.77
12781;BME280;6454;43.304;24.344;2023-11-21T06:52:36;100039.78;;;6.85;85.48
12781;BME280;6454;43.304;24.344;2023-11-21T06:55:05;100082.50;;;7.24;84.44
12781;BME280;6454;43.304;24.344;2023-11-21T06:57:33;100080.63;;;7.29;84.31
12781;BME280;6454;43.304;24.344;2023-11-21T07:00:04;100063.38;;;7.35;84.54
12781;BME280;6454;43.304;24.344;2023-11-21T07:02:34;100060.16;;;7.43;84.16
12781;BME280;6454;43.304;24.344;2023-11-21T07:05:01;100057.22;;;7.55;83.49
12781;BME280;6454;43.304;24.344;2023-11-21T07:07:29;100047.78;;;7.62;83.01
12781;BME280;6454;43.304;24.344;2023-11-21T07:09:56;100052.88;;;7.74;82.11
12781;BME280;6454;43.304;24.344;2023-11-21T07:12:23;100059.34;;;7.88;82.13
12781;BME280;6454;43.304;24.344;2023-11-21T07:14:51;100068.81;;;7.96;82.16
12781;BME280;6454;43.304;24.344;2023-11-21T07:17:20;100065.84;;;8.07;82.09
12781;BME280;6454;43.304;24.344;2023-11-21T07:19:48;100005.09;;;7.79;82.70
12781;BME280;6454;43.304;24.344;2023-11-21T07:22:16;100074.50;;;8.34;82.16
12781;BME280;6454;43.304;24.344;2023-11-21T07:24:49;100075.25;;;8.45;81.88
12781;BME280;6454;43.304;24.344;2023-11-21T07:27:17;100074.44;;;8.60;81.81
12781;BME280;6454;43.304;24.344;2023-11-21T07:29:45;100067.63;;;8.72;82.08
12781;BME280;6454;43.304;24.344;2023-11-21T07:32:13;100064.59;;;8.84;81.90
12781;BME280;6454;43.304;24.344;2023-11-21T07:34:43;100074.00;;;8.96;81.29
12781;BME280;6454;43.304;24.344;2023-11-21T07:37:10;99889.78;;;7.85;80.28
12781;BME280;6454;43.304;24.344;2023-11-21T07:39:37;100076.84;;;9.20;79.97
12781;BME280;6454;43.304;24.344;2023-11-21T07:42:08;100071.16;;;9.27;79.84
12781;BME280;6454;43.304;24.344;2023-11-21T07:44:36;100070.81;;;9.38;79.37
12781;BME280;6454;43.304;24.344;2023-11-21T07:47:03;99999.28;;;9.05;78.69
12781;BME280;6454;43.304;24.344;2023-11-21T07:49:30;100067.66;;;9.60;78.80
12781;BME280;6454;43.304;24.344;2023-11-21T07:51:59;100062.19;;;9.70;78.46
12781;BME280;6454;43.304;24.344;2023-11-21T07:54:26;100052.63;;;9.78;77.81
12781;BME280;6454;43.304;24.344;2023-11-21T07:56:53;100052.34;;;9.84;77.41
12781;BME280;6454;43.304;24.344;2023-11-21T07:59:20;100051.66;;;9.97;76.71
12781;BME280;6454;43.304;24.344;2023-11-21T08:01:48;99948.13;;;9.43;76.45
12781;BME280;6454;43.304;24.344;2023-11-21T08:04:16;100025.06;;;10.04;75.36
12781;BME280;6454;43.304;24.344;2023-11-21T08:06:45;100040.50;;;10.32;74.99
12781;BME280;6454;43.304;24.344;2023-11-21T08:09:15;100018.94;;;10.22;73.97
12781;BME280;6454;43.304;24.344;2023-11-21T08:11:43;100041.63;;;10.55;73.71
12781;BME280;6454;43.304;24.344;2023-11-21T08:14:12;100042.00;;;10.67;73.37
12781;BME280;6454;43.304;24.344;2023-11-21T08:16:41;100037.78;;;10.80;72.86
12781;BME280;6454;43.304;24.344;2023-11-21T08:19:08;100023.59;;;10.88;72.99
12781;BME280;6454;43.304;24.344;2023-11-21T08:21:36;99989.91;;;10.70;71.73
12781;BME280;6454;43.304;24.344;2023-11-21T08:24:06;99886.22;;;10.12;71.50
12781;BME280;6454;43.304;24.344;2023-11-21T08:26:38;100038.06;;;11.21;70.79
12781;BME280;6454;43.304;24.344;2023-11-21T08:29:05;100035.41;;;11.34;69.62
12781;BME280;6454;43.304;24.344;2023-11-21T08:31:32;100034.25;;;11.40;68.69
12781;BME280;6454;43.304;24.344;2023-11-21T08:33:59;100032.28;;;11.46;68.67
12781;BME280;6454;43.304;24.344;2023-11-21T08:36:30;100034.34;;;11.54;68.57
12781;BME280;6454;43.304;24.344;2023-11-21T08:38:58;100032.19;;;11.70;67.94
12781;BME280;6454;43.304;24.344;2023-11-21T08:41:25;100034.75;;;11.80;67.54
12781;BME280;6454;43.304;24.344;2023-11-21T08:43:55;100033.16;;;11.92;65.69
12781;BME280;6454;43.304;24.344;2023-11-21T08:46:24;100026.47;;;12.03;65.36
12781;BME280;6454;43.304;24.344;2023-11-21T08:48:51;99989.69;;;11.92;65.27
12781;BME280;6454;43.304;24.344;2023-11-21T08:51:19;100018.72;;;12.24;65.35
12781;BME280;6454;43.304;24.344;2023-11-21T08:53:46;100006.25;;;12.37;64.61
12781;BME280;6454;43.304;24.344;2023-11-21T08:56:13;99998.59;;;12.52;62.98
12781;BME280;6454;43.304;24.344;2023-11-21T08:58:41;99991.75;;;12.68;62.14
12781;BME280;6454;43.304;24.344;2023-11-21T09:01:10;99978.94;;;12.69;61.77
12781;BME280;6454;43.304;24.344;2023-11-21T09:03:37;99923.13;;;12.58;61.02
12781;BME280;6454;43.304;24.344;2023-11-21T09:06:05;99973.53;;;13.05;60.55
12781;BME280;6454;43.304;24.344;2023-11-21T09:08:35;99967.88;;;13.15;60.12
12781;BME280;6454;43.304;24.344;2023-11-21T09:11:03;99970.06;;;13.26;59.79
12781;BME280;6454;43.304;24.344;2023-11-21T09:13:31;99966.38;;;13.44;58.73
12781;BME280;6454;43.304;24.344;2023-11-21T09:15:58;99967.28;;;13.62;57.72
12781;BME280;6454;43.304;24.344;2023-11-21T09:18:27;99953.66;;;13.62;57.70
12781;BME280;6454;43.304;24.344;2023-11-21T09:20:54;99967.75;;;13.86;57.35
12781;BME280;6454;43.304;24.344;2023-11-21T09:23:21;99948.09;;;13.98;57.51
12781;BME280;6454;43.304;24.344;2023-11-21T09:25:49;99953.63;;;14.15;56.22
12781;BME280;6454;43.304;24.344;2023-11-21T09:28:18;99938.72;;;14.21;56.08
12781;BME280;6454;43.304;24.344;2023-11-21T09:30:45;99947.47;;;14.32;54.66
12781;BME280;6454;43.304;24.344;2023-11-21T09:33:12;99945.59;;;14.41;54.71
12781;BME280;6454;43.304;24.344;2023-11-21T09:35:42;99935.63;;;14.45;54.99
12781;BME280;6454;43.304;24.344;2023-11-21T09:38:10;99932.75;;;14.50;54.63
12781;BME280;6454;43.304;24.344;2023-11-21T09:40:37;99911.69;;;14.42;54.15
12781;BME280;6454;43.304;24.344;2023-11-21T09:43:06;99900.94;;;14.37;54.43
12781;BME280;6454;43.304;24.344;2023-11-21T09:45:45;99924.09;;;14.56;54.15
12781;BME280;6454;43.304;24.344;2023-11-21T09:48:13;99911.75;;;14.67;53.32
12781;BME280;6454;43.304;24.344;2023-11-21T09:50:43;99862.09;;;14.40;53.31
12781;BME280;6454;43.304;24.344;2023-11-21T09:53:13;99904.84;;;14.78;53.45
12781;BME280;6454;43.304;24.344;2023-11-21T09:55:44;99901.66;;;14.85;51.85
12781;BME280;6454;43.304;24.344;2023-11-21T09:58:14;99895.72;;;14.92;50.45
12781;BME280;6454;43.304;24.344;2023-11-21T10:00:42;99875.31;;;14.80;50.36
12781;BME280;6454;43.304;24.344;2023-11-21T10:03:10;99877.09;;;14.85;50.90
12781;BME280;6454;43.304;24.344;2023-11-21T10:05:38;99863.91;;;14.87;50.04
12781;BME280;6454;43.304;24.344;2023-11-21T10:08:08;99768.78;;;14.29;49.12
12781;BME280;6454;43.304;24.344;2023-11-21T10:10:37;99866.78;;;15.08;47.75
12781;BME280;6454;43.304;24.344;2023-11-21T10:13:10;99860.84;;;15.14;48.16
12781;BME280;6454;43.304;24.344;2023-11-21T10:15:38;99776.84;;;14.68;47.24
12781;BME280;6454;43.304;24.344;2023-11-21T10:18:10;99846.66;;;15.21;48.25
12781;BME280;6454;43.304;24.344;2023-11-21T10:20:37;99833.34;;;15.28;48.19
12781;BME280;6454;43.304;24.344;2023-11-21T10:23:05;99834.44;;;15.35;47.57
12781;BME280;6454;43.304;24.344;2023-11-21T10:25:34;99822.06;;;15.38;46.84
12781;BME280;6454;43.304;24.344;2023-11-21T10:28:04;99819.66;;;15.45;47.36
12781;BME280;6454;43.304;24.344;2023-11-21T10:30:32;99796.31;;;15.39;47.15
12781;BME280;6454;43.304;24.344;2023-11-21T10:33:02;99803.69;;;15.56;46.95
12781;BME280;6454;43.304;24.344;2023-11-21T10:35:46;99800.28;;;15.59;46.23
12781;BME280;6454;43.304;24.344;2023-11-21T10:38:17;99799.19;;;15.60;47.18
12781;BME280;6454;43.304;24.344;2023-11-21T10:40:48;99796.91;;;15.62;47.33
12781;BME280;6454;43.304;24.344;2023-11-21T10:43:15;99787.22;;;15.73;47.37
12781;BME280;6454;43.304;24.344;2023-11-21T10:45:43;99786.03;;;15.82;46.50
12781;BME280;6454;43.304;24.344;2023-11-21T10:48:13;99775.53;;;15.93;46.93
12781;BME280;6454;43.304;24.344;2023-11-21T10:50:42;99776.00;;;15.95;45.98
12781;BME280;6454;43.304;24.344;2023-11-21T10:53:10;99779.31;;;16.00;45.92
12781;BME280;6454;43.304;24.344;2023-11-21T10:55:38;99772.41;;;16.03;45.45
12781;BME280;6454;43.304;24.344;2023-11-21T10:58:07;99759.88;;;16.02;45.95
12781;BME280;6454;43.304;24.344;2023-11-21T11:00:37;99757.88;;;16.11;44.99
12781;BME280;6454;43.304;24.344;2023-11-21T11:03:06;99742.06;;;16.17;44.46
12781;BME280;6454;43.304;24.344;2023-11-21T11:05:39;99734.25;;;16.27;44.17
12781;BME280;6454;43.304;24.344;2023-11-21T11:08:08;99737.47;;;16.29;43.65
12781;BME280;6454;43.304;24.344;2023-11-21T11:10:38;99673.72;;;15.87;43.68
12781;BME280;6454;43.304;24.344;2023-11-21T11:13:08;99732.91;;;16.33;43.58
12781;BME280;6454;43.304;24.344;2023-11-21T11:15:40;99719.72;;;16.35;43.32
12781;BME280;6454;43.304;24.344;2023-11-21T11:18:08;99723.38;;;16.39;44.46
12781;BME280;6454;43.304;24.344;2023-11-21T11:20:37;99706.84;;;16.48;44.18
12781;BME280;6454;43.304;24.344;2023-11-21T11:23:19;99707.53;;;16.45;43.80
12781;BME280;6454;43.304;24.344;2023-11-21T11:26:06;99671.78;;;16.29;44.14
12781;BME280;6454;43.304;24.344;2023-11-21T11:28:44;99707.53;;;16.45;43.45
12781;BME280;6454;43.304;24.344;2023-11-21T11:31:23;99695.19;;;16.39;43.82
12781;BME280;6454;43.304;24.344;2023-11-21T11:33:56;99693.91;;;16.36;42.77
12781;BME280;6454;43.304;24.344;2023-11-21T11:36:28;99692.66;;;16.34;42.60
12781;BME280;6454;43.304;24.344;2023-11-21T11:38:56;99627.75;;;16.01;43.24
12781;BME280;6454;43.304;24.344;2023-11-21T11:41:28;99687.78;;;16.39;43.68
12781;BME280;6454;43.304;24.344;2023-11-21T11:43:58;99688.69;;;16.43;43.96
12781;BME280;6454;43.304;24.344;2023-11-21T11:46:41;99687.13;;;16.42;44.96
12781;BME280;6454;43.304;24.344;2023-11-21T11:49:11;99713.53;;;16.38;45.03
12781;BME280;6454;43.304;24.344;2023-11-21T11:54:53;99687.63;;;16.36;47.31
12781;BME280;6454;43.304;24.344;2023-11-21T11:57:24;99683.63;;;16.33;48.07
12781;BME280;6454;43.304;24.344;2023-11-21T12:00:17;99643.16;;;16.06;47.66
12781;BME280;6454;43.304;24.344;2023-11-21T12:02:47;99637.75;;;15.97;47.50
12781;BME280;6454;43.304;24.344;2023-11-21T12:05:14;99680.91;;;16.33;47.94
12781;BME280;6454;43.304;24.344;2023-11-21T12:07:44;99675.91;;;16.35;47.23
12781;BME280;6454;43.304;24.344;2023-11-21T12:10:14;99685.72;;;16.36;47.17
12781;BME280;6454;43.304;24.344;2023-11-21T12:12:44;99688.13;;;16.38;47.02
12781;BME280;6454;43.304;24.344;2023-11-21T12:15:13;99687.44;;;16.41;47.22
12781;BME280;6454;43.304;24.344;2023-11-21T12:17:43;99690.31;;;16.44;47.51
12781;BME280;6454;43.304;24.344;2023-11-21T12:20:11;99682.41;;;16.43;48.04
12781;BME280;6454;43.304;24.344;2023-11-21T12:22:45;99686.75;;;16.44;47.65
12781;BME280;6454;43.304;24.344;2023-11-21T12:25:15;99672.72;;;16.45;47.02
12781;BME280;6454;43.304;24.344;2023-11-21T12:27:44;99669.53;;;16.43;46.67
12781;BME280;6454;43.304;24.344;2023-11-21T12:30:13;99669.22;;;16.45;46.64
12781;BME280;6454;43.304;24.344;2023-11-21T12:32:43;99663.75;;;16.45;46.85
12781;BME280;6454;43.304;24.344;2023-11-21T12:35:13;99671.16;;;16.44;46.50
12781;BME280;6454;43.304;24.344;2023-11-21T12:37:42;99642.78;;;16.28;46.59
12781;BME280;6454;43.304;24.344;2023-11-21T12:40:10;99663.75;;;16.45;46.42
12781;BME280;6454;43.304;24.344;2023-11-21T12:42:41;99659.53;;;16.47;45.98
12781;BME280;6454;43.304;24.344;2023-11-21T12:45:18;99642.72;;;16.37;46.92
12781;BME280;6454;43.304;24.344;2023-11-21T12:47:48;99659.84;;;16.46;47.12
12781;BME280;6454;43.304;24.344;2023-11-21T12:50:19;99678.56;;;16.44;47.34
12781;BME280;6454;43.304;24.344;2023-11-21T12:52:50;99582.00;;;15.90;46.75
12781;BME280;6454;43.304;24.344;2023-11-21T12:55:20;99665.22;;;16.42;46.31
12781;BME280;6454;43.304;24.344;2023-11-21T12:57:49;99666.78;;;16.43;46.57
12781;BME280;6454;43.304;24.344;2023-11-21T13:00:26;99654.22;;;16.30;45.99
12781;BME280;6454;43.304;24.344;2023-11-21T13:02:58;99660.41;;;16.39;45.73
12781;BME280;6454;43.304;24.344;2023-11-21T13:05:26;99461.63;;;15.16;46.30
12781;BME280;6454;43.304;24.344;2023-11-21T13:07:55;99678.31;;;16.37;46.26
12781;BME280;6454;43.304;24.344;2023-11-21T13:10:25;99652.41;;;16.34;47.21